Time;durP1;ratioP1;P1;durP2;ratioP2;P2;SDS_P1;SDS_P2;PMS_P1;PMS_P2;Temp;Humidity;BMP_temperature;BMP_pressure;BME280_temperature;BME280_humidity;BME280_pressure;Samples;Min_cycle;Max_cycle;Signal;HPM_P1;HPM_P2
2021/04/14 00:00:27;;;;;;;;;;;;;;;20.85;46.91;102336.84;2070615;28;4075;-74
2021/04/14 00:01:28;;;;;;;;;;;;;;;20.85;46.80;102336.84;2077167;28;3878;-75
2021/04/14 00:02:29;;;;;;;;;;;;;;;20.84;46.92;102343.72;2076604;28;3752;-74
2021/04/14 00:03:32;;;;;;;;;;;;;;;20.84;46.89;102346.56;2076809;28;3900;-77
2021/04/14 00:04:33;;;;;;;;;;;;;;;20.85;46.87;102338.84;2073941;28;5330;-76
2021/04/14 00:05:35;;;;;;;;;;;;;;;20.85;46.88;102336.00;2075554;28;4014;-73
2021/04/14 00:06:36;;;;;;;;;;;;;;;20.85;46.96;102344.53;2076304;28;3899;-73
2021/04/14 00:07:38;;;;;;;;;;;;;;;20.84;46.92;102346.56;2077408;28;3931;-72
2021/04/14 00:08:38;;;;;;;;;;;;;;;20.85;47.01;102336.84;2077830;28;4034;-71
2021/04/14 00:09:39;;;;;;;;;;;;;;;20.85;46.99;102336.00;2077065;28;3787;-72
2021/04/14 00:10:40;;;;;;;;;;;;;;;20.85;46.90;102339.69;2077582;28;3898;-72
2021/04/14 00:11:40;;;;;;;;;;;;;;;20.85;47.05;102336.84;2076762;28;4407;-72
2021/04/14 00:12:41;;;;;;;;;;;;;;;20.86;46.92;102329.16;2076843;28;3838;-72
2021/04/14 00:13:43;;;;;;;;;;;;;;;20.85;46.96;102333.16;2077176;28;4003;-72
2021/04/14 00:14:44;;;;;;;;;;;;;;;20.85;46.99;102330.31;2076106;28;4035;-73
2021/04/14 00:15:44;;;;;;;;;;;;;;;20.85;46.98;102336.00;2077438;28;5161;-72
2021/04/14 00:16:45;;;;;;;;;;;;;;;20.86;47.11;102332.00;2077181;28;3943;-72
2021/04/14 00:17:46;;;;;;;;;;;;;;;20.86;47.10;102332.84;2076801;28;3876;-73
2021/04/14 00:18:47;;;;;;;;;;;;;;;20.86;47.00;102324.31;2077408;28;3856;-72
2021/04/14 00:19:48;;;;;;;;;;;;;;;20.85;47.16;102336.84;2076534;28;4008;-72
2021/04/14 00:20:49;;;;;;;;;;;;;;;20.85;46.99;102330.31;2077247;28;4791;-72
2021/04/14 00:21:50;;;;;;;;;;;;;;;20.85;47.00;102328.31;2077586;28;3864;-72
2021/04/14 00:22:51;;;;;;;;;;;;;;;20.86;47.12;102329.16;2077145;28;4006;-72
2021/04/14 00:23:52;;;;;;;;;;;;;;;20.85;47.07;102328.31;2078102;28;3956;-72
2021/04/14 00:24:52;;;;;;;;;;;;;;;20.86;47.03;102332.00;2076960;28;3868;-72
2021/04/14 00:25:53;;;;;;;;;;;;;;;20.85;47.14;102328.31;2077491;28;4034;-72
2021/04/14 00:26:54;;;;;;;;;;;;;;;20.85;47.08;102331.16;2077495;28;3909;-72
2021/04/14 00:27:55;;;;;;;;;;;;;;;20.86;47.13;102337.69;2076846;28;4319;-72
2021/04/14 00:28:56;;;;;;;;;;;;;;;20.85;47.25;102331.16;2077342;28;3882;-73
2021/04/14 00:29:56;;;;;;;;;;;;;;;20.86;47.25;102340.53;2077632;28;4046;-72
2021/04/14 00:30:57;;;;;;;;;;;;;;;20.85;47.13;102336.00;2077557;28;3872;-72
2021/04/14 00:31:58;;;;;;;;;;;;;;;20.86;47.31;102335.69;2076434;28;4018;-72
2021/04/14 00:32:59;;;;;;;;;;;;;;;20.86;47.26;102332.84;2077471;28;4021;-72
2021/04/14 00:34:00;;;;;;;;;;;;;;;20.85;47.26;102328.31;2077766;28;4002;-72
2021/04/14 00:35:00;;;;;;;;;;;;;;;20.85;47.23;102334.00;2076702;28;4396;-72
2021/04/14 00:36:01;;;;;;;;;;;;;;;20.86;47.24;102332.00;2077567;28;3864;-72
2021/04/14 00:37:02;;;;;;;;;;;;;;;20.86;47.21;102326.31;2076871;28;4021;-72
2021/04/14 00:38:02;;;;;;;;;;;;;;;20.85;47.35;102328.31;2076105;28;3859;-72
2021/04/14 00:39:03;;;;;;;;;;;;;;;20.86;47.18;102334.84;2074684;28;3999;-74
2021/04/14 00:40:04;;;;;;;;;;;;;;;20.86;47.21;102337.69;2075356;28;3995;-74
2021/04/14 00:41:05;;;;;;;;;;;;;;;20.86;47.39;102332.84;2076089;28;3979;-74
2021/04/14 00:42:05;;;;;;;;;;;;;;;20.85;47.39;102328.31;2076438;28;3877;-74
2021/04/14 00:43:06;;;;;;;;;;;;;;;20.85;47.48;102331.16;2077486;28;3801;-73
2021/04/14 00:44:07;;;;;;;;;;;;;;;20.85;47.48;102334.00;2078024;28;3850;-73
2021/04/14 00:45:08;;;;;;;;;;;;;;;20.85;47.33;102331.16;2075734;28;3967;-73
2021/04/14 00:46:08;;;;;;;;;;;;;;;20.86;47.45;102332.00;2075885;28;4117;-73
2021/04/14 00:47:09;;;;;;;;;;;;;;;20.86;47.56;102327.16;2077359;28;3998;-72
2021/04/14 00:48:10;;;;;;;;;;;;;;;20.87;47.54;102331.69;2077628;28;3851;-71
2021/04/14 00:49:12;;;;;;;;;;;;;;;20.89;47.52;102331.38;2076026;28;4001;-73
2021/04/14 00:50:13;;;;;;;;;;;;;;;20.88;47.67;102327.69;2076823;28;3888;-75
2021/04/14 00:51:14;;;;;;;;;;;;;;;20.89;47.83;102328.53;2076777;28;3758;-74
2021/04/14 00:52:16;;;;;;;;;;;;;;;20.89;47.72;102322.84;2076108;28;3912;-74
2021/04/14 00:53:17;;;;;;;;;;;;;;;20.87;47.56;102328.84;2076960;28;4005;-74
2021/04/14 00:54:18;;;;;;;;;;;;;;;20.88;47.65;102324.84;2075371;28;3776;-74
2021/04/14 00:55:19;;;;;;;;;;;;;;;20.88;47.63;102333.38;2077319;28;3840;-74
2021/04/14 00:56:19;;;;;;;;;;;;;;;20.88;47.83;102327.69;2076588;28;4027;-74
2021/04/14 00:57:20;;;;;;;;;;;;;;;20.87;47.59;102323.16;2076866;28;3964;-74
2021/04/14 00:58:21;;;;;;;;;;;;;;;20.87;47.85;102328.84;2077385;28;3852;-74
2021/04/14 00:59:22;;;;;;;;;;;;;;;20.87;47.81;102326.00;2077019;28;4048;-74
2021/04/14 01:00:22;;;;;;;;;;;;;;;20.86;47.86;102332.84;2076505;28;4044;-74
2021/04/14 01:01:23;;;;;;;;;;;;;;;20.87;47.83;102328.00;2078133;28;3856;-73
2021/04/14 01:02:24;;;;;;;;;;;;;;;20.87;47.81;102328.00;2077445;28;3879;-74
2021/04/14 01:03:25;;;;;;;;;;;;;;;20.87;47.79;102331.69;2077083;28;4031;-74
2021/04/14 01:04:26;;;;;;;;;;;;;;;20.87;47.91;102328.00;2077475;28;3847;-74
2021/04/14 01:05:26;;;;;;;;;;;;;;;20.86;47.81;102332.84;2076435;28;4008;-74
2021/04/14 01:06:28;;;;;;;;;;;;;;;20.87;47.88;102330.88;2076915;28;4017;-74
2021/04/14 01:07:28;;;;;;;;;;;;;;;20.87;47.82;102330.88;2076815;28;3759;-74
2021/04/14 01:08:29;;;;;;;;;;;;;;;20.87;47.98;102331.69;2077139;28;3942;-74
2021/04/14 01:09:30;;;;;;;;;;;;;;;20.87;48.00;102333.72;2077447;28;3876;-74
2021/04/14 01:10:31;;;;;;;;;;;;;;;20.86;47.91;102332.84;2074850;28;3847;-74
2021/04/14 01:11:31;;;;;;;;;;;;;;;20.87;47.83;102326.00;2072179;28;5284;-74
2021/04/14 01:12:32;;;;;;;;;;;;;;;20.87;47.65;102328.00;2071010;28;4024;-74
2021/04/14 01:13:33;;;;;;;;;;;;;;;20.87;48.05;102333.72;2076859;28;3759;-74
2021/04/14 01:14:33;;;;;;;;;;;;;;;20.87;47.91;102328.84;2076860;28;5101;-74
2021/04/14 01:15:34;;;;;;;;;;;;;;;20.87;48.04;102334.53;2076450;28;3875;-74
2021/04/14 01:16:35;;;;;;;;;;;;;;;20.86;48.03;102330.00;2076976;28;4068;-74
2021/04/14 01:17:37;;;;;;;;;;;;;;;20.87;48.00;102319.47;2078160;28;5128;-74
2021/04/14 01:18:37;;;;;;;;;;;;;;;20.85;48.09;102328.31;2076403;28;3921;-74
2021/04/14 01:19:38;;;;;;;;;;;;;;;20.86;47.89;102327.16;2078526;28;4040;-74
2021/04/14 01:20:39;;;;;;;;;;;;;;;20.87;48.21;102328.00;2069227;28;3764;-74
2021/04/14 01:21:40;;;;;;;;;;;;;;;20.87;48.07;102328.00;2069486;28;3969;-74
2021/04/14 01:22:40;;;;;;;;;;;;;;;20.87;48.19;102325.16;2075988;28;4074;-73
2021/04/14 01:23:41;;;;;;;;;;;;;;;20.87;48.09;102328.00;2078226;28;3884;-73
2021/04/14 01:24:42;;;;;;;;;;;;;;;20.87;48.24;102326.00;2077857;28;3893;-73
2021/04/14 01:25:43;;;;;;;;;;;;;;;20.88;48.26;102324.84;2077602;28;3902;-73
2021/04/14 01:26:44;;;;;;;;;;;;;;;20.89;48.34;102328.53;2076555;28;3787;-73
2021/04/14 01:27:44;;;;;;;;;;;;;;;20.88;48.32;102322.00;2076268;28;3873;-73
2021/04/14 01:28:47;;;;;;;;;;;;;;;20.89;48.34;102320.81;2075787;28;3863;-73
2021/04/14 01:29:47;;;;;;;;;;;;;;;20.89;48.28;102319.97;2076402;28;3889;-73
2021/04/14 01:30:48;;;;;;;;;;;;;;;20.90;48.32;102324.53;2076649;28;3874;-73
2021/04/14 01:31:49;;;;;;;;;;;;;;;20.89;48.43;102332.19;2078288;28;4027;-73
2021/04/14 01:32:50;;;;;;;;;;;;;;;20.88;48.42;102319.16;2077269;28;3774;-73
2021/04/14 01:33:51;;;;;;;;;;;;;;;20.89;48.42;102323.66;2077104;28;3935;-72
2021/04/14 01:34:51;;;;;;;;;;;;;;;20.88;48.47;102324.84;2078202;28;4121;-72
2021/04/14 01:35:52;;;;;;;;;;;;;;;20.89;48.48;102322.84;2078363;28;4005;-73
2021/04/14 01:36:53;;;;;;;;;;;;;;;20.89;48.47;102319.97;2077984;28;4059;-72
2021/04/14 01:37:53;;;;;;;;;;;;;;;20.89;48.45;102311.44;2078229;28;3770;-72
2021/04/14 01:38:54;;;;;;;;;;;;;;;20.88;48.58;102318.31;2077720;28;3853;-72
2021/04/14 01:39:55;;;;;;;;;;;;;;;20.89;48.56;102322.84;2078069;28;3857;-73
2021/04/14 01:40:56;;;;;;;;;;;;;;;20.89;48.51;102325.66;2078711;28;4010;-72
2021/04/14 01:41:56;;;;;;;;;;;;;;;20.88;48.61;102313.47;2076181;28;4106;-70
2021/04/14 01:42:57;;;;;;;;;;;;;;;20.89;48.49;102320.81;2078128;28;4016;-71
2021/04/14 01:43:58;;;;;;;;;;;;;;;20.89;48.62;102320.81;2078376;28;3858;-70
2021/04/14 01:44:59;;;;;;;;;;;;;;;20.89;48.56;102315.13;2078107;28;3764;-70
2021/04/14 01:46:00;;;;;;;;;;;;;;;20.89;48.61;102315.13;2077756;28;3815;-70
2021/04/14 01:47:01;;;;;;;;;;;;;;;20.89;48.59;102312.28;2078130;28;3878;-70
2021/04/14 01:48:02;;;;;;;;;;;;;;;20.89;48.48;102314.28;2078444;28;3865;-70
2021/04/14 01:49:03;;;;;;;;;;;;;;;20.89;48.54;102315.13;2078539;28;3885;-71
2021/04/14 01:50:04;;;;;;;;;;;;;;;20.89;48.64;102311.44;2077683;28;4009;-70
2021/04/14 01:51:05;;;;;;;;;;;;;;;20.89;48.53;102320.81;2078242;28;3868;-70
2021/04/14 01:52:06;;;;;;;;;;;;;;;20.89;48.59;102314.28;2078043;28;4007;-70
2021/04/14 01:53:06;;;;;;;;;;;;;;;20.89;48.55;102314.28;2078503;28;4067;-70
2021/04/14 01:54:07;;;;;;;;;;;;;;;20.89;48.60;102311.44;2078456;28;3871;-70
2021/04/14 01:55:08;;;;;;;;;;;;;;;20.88;48.62;102313.47;2077728;28;3851;-70
2021/04/14 01:56:09;;;;;;;;;;;;;;;20.89;48.56;102317.13;2077915;28;3853;-70
2021/04/14 01:57:09;;;;;;;;;;;;;;;20.89;48.59;102311.44;2075925;28;3868;-71
2021/04/14 01:58:10;;;;;;;;;;;;;;;20.88;48.57;102306.94;2078842;28;3847;-70
2021/04/14 01:59:11;;;;;;;;;;;;;;;20.89;48.53;102312.28;2077740;28;3832;-71
2021/04/14 02:00:14;;;;;;;;;;;;;;;20.88;48.58;102302.06;2077423;28;3709;-70
2021/04/14 02:01:15;;;;;;;;;;;;;;;20.88;48.58;102313.47;2078366;28;3773;-70
2021/04/14 02:02:16;;;;;;;;;;;;;;;20.89;48.66;102312.28;2076748;28;3915;-70
2021/04/14 02:03:17;;;;;;;;;;;;;;;20.89;48.61;102309.44;2077911;28;3989;-70
2021/04/14 02:04:18;;;;;;;;;;;;;;;20.88;48.75;102307.78;2078286;28;3760;-70
2021/04/14 02:05:18;;;;;;;;;;;;;;;20.88;48.63;102299.22;2077756;28;3836;-70
2021/04/14 02:06:19;;;;;;;;;;;;;;;20.88;48.68;102302.06;2078692;28;3810;-70
2021/04/14 02:07:20;;;;;;;;;;;;;;;20.88;48.59;102307.78;2077817;28;5836;-70
2021/04/14 02:08:21;;;;;;;;;;;;;;;20.88;48.64;102299.22;2078037;28;5197;-70
2021/04/14 02:09:21;;;;;;;;;;;;;;;20.88;48.72;102307.78;2077678;28;4112;-70
2021/04/14 02:10:22;;;;;;;;;;;;;;;20.87;48.75;102303.25;2078111;28;3867;-70
2021/04/14 02:11:23;;;;;;;;;;;;;;;20.88;48.54;102309.78;2078232;28;3856;-70
2021/04/14 02:12:24;;;;;;;;;;;;;;;20.89;48.59;102308.59;2076957;28;4144;-70
2021/04/14 02:13:24;;;;;;;;;;;;;;;20.88;48.67;102301.25;2077892;28;3855;-70
2021/04/14 02:14:25;;;;;;;;;;;;;;;20.88;48.73;102301.25;2078036;28;3872;-71
2021/04/14 02:15:26;;;;;;;;;;;;;;;20.88;48.64;102306.94;2078236;28;3844;-71
2021/04/14 02:16:27;;;;;;;;;;;;;;;20.89;48.64;102308.59;2077837;28;5517;-71
2021/04/14 02:17:27;;;;;;;;;;;;;;;20.87;48.68;102303.25;2078373;28;4173;-70
2021/04/14 02:18:28;;;;;;;;;;;;;;;20.88;48.52;102306.94;2077807;28;4045;-71
2021/04/14 02:19:29;;;;;;;;;;;;;;;20.87;48.60;102297.56;2077712;28;3907;-70
2021/04/14 02:20:30;;;;;;;;;;;;;;;20.87;48.70;102305.25;2077420;28;4018;-71
2021/04/14 02:21:30;;;;;;;;;;;;;;;20.87;48.59;102303.25;2077894;28;4234;-70
2021/04/14 02:22:31;;;;;;;;;;;;;;;20.88;48.62;102304.09;2078299;28;3871;-70
2021/04/14 02:23:32;;;;;;;;;;;;;;;20.88;48.71;102306.94;2077880;28;3761;-72
2021/04/14 02:24:33;;;;;;;;;;;;;;;20.87;48.67;102300.41;2077927;28;4195;-70
2021/04/14 02:25:33;;;;;;;;;;;;;;;20.88;48.51;102301.25;2077543;28;4066;-70
2021/04/14 02:26:34;;;;;;;;;;;;;;;20.88;48.60;102301.25;2078359;28;3869;-71
2021/04/14 02:27:36;;;;;;;;;;;;;;;20.88;48.63;102304.91;2076619;28;3852;-71
2021/04/14 02:28:37;;;;;;;;;;;;;;;20.88;48.54;102304.09;2076945;28;3835;-71
2021/04/14 02:29:37;;;;;;;;;;;;;;;20.87;48.58;102299.56;2077766;28;4019;-71
2021/04/14 02:30:38;;;;;;;;;;;;;;;20.87;48.63;102303.25;2076720;28;4055;-71
2021/04/14 02:31:39;;;;;;;;;;;;;;;20.87;48.53;102294.72;2077999;28;3859;-71
2021/04/14 02:32:40;;;;;;;;;;;;;;;20.88;48.52;102301.25;2078420;28;3859;-71
2021/04/14 02:33:40;;;;;;;;;;;;;;;20.87;48.50;102308.94;2077093;28;4055;-70
2021/04/14 02:34:41;;;;;;;;;;;;;;;20.86;48.68;102307.22;2077043;28;3850;-70
2021/04/14 02:35:42;;;;;;;;;;;;;;;20.87;48.69;102293.88;2077281;28;3845;-70
2021/04/14 02:36:43;;;;;;;;;;;;;;;20.88;48.51;102306.94;2077804;28;4035;-71
2021/04/14 02:37:44;;;;;;;;;;;;;;;20.85;48.60;102301.88;2077824;28;4062;-70
2021/04/14 02:38:45;;;;;;;;;;;;;;;20.87;48.61;102300.41;2077805;28;3880;-70
2021/04/14 02:39:45;;;;;;;;;;;;;;;20.87;48.73;102303.25;2077970;28;3895;-71
2021/04/14 02:40:46;;;;;;;;;;;;;;;20.87;48.63;102305.25;2077976;28;3865;-71
2021/04/14 02:41:47;;;;;;;;;;;;;;;20.86;48.77;102304.38;2078258;28;3860;-70
2021/04/14 02:42:48;;;;;;;;;;;;;;;20.88;48.58;102306.94;2076882;28;3943;-70
2021/04/14 02:43:48;;;;;;;;;;;;;;;20.87;48.75;102299.56;2077679;28;3834;-71
2021/04/14 02:44:49;;;;;;;;;;;;;;;20.86;48.69;102298.69;2077126;28;3775;-71
2021/04/14 02:45:50;;;;;;;;;;;;;;;20.87;48.75;102303.25;2077911;28;3869;-71
2021/04/14 02:46:51;;;;;;;;;;;;;;;20.86;48.65;102304.38;2077825;28;3849;-70
2021/04/14 02:47:52;;;;;;;;;;;;;;;20.87;48.69;102303.25;2077942;28;3751;-70
2021/04/14 02:48:53;;;;;;;;;;;;;;;20.86;48.61;102304.38;2077354;28;3765;-70
2021/04/14 02:49:54;;;;;;;;;;;;;;;20.86;48.61;102298.69;2076194;28;3953;-71
2021/04/14 02:50:55;;;;;;;;;;;;;;;20.87;48.61;102299.56;2077517;28;4116;-71
2021/04/14 02:51:55;;;;;;;;;;;;;;;20.86;48.64;102298.69;2077488;28;3902;-71
2021/04/14 02:52:56;;;;;;;;;;;;;;;20.86;48.59;102297.84;2077760;28;3873;-71
2021/04/14 02:53:57;;;;;;;;;;;;;;;20.87;48.67;102300.41;2077680;28;3823;-69
2021/04/14 02:54:57;;;;;;;;;;;;;;;20.87;48.73;102302.41;2077213;28;4063;-70
2021/04/14 02:55:58;;;;;;;;;;;;;;;20.86;48.72;102298.69;2077692;28;3896;-70
2021/04/14 02:56:59;;;;;;;;;;;;;;;20.87;48.68;102306.09;2078165;28;3985;-70
2021/04/14 02:58:00;;;;;;;;;;;;;;;20.87;48.76;102306.09;2077550;28;3716;-70
2021/04/14 02:59:01;;;;;;;;;;;;;;;20.86;48.68;102304.38;2078002;28;3933;-70
2021/04/14 03:00:02;;;;;;;;;;;;;;;20.86;48.58;102304.38;2076875;28;3949;-70
2021/04/14 03:01:02;;;;;;;;;;;;;;;20.86;48.77;102304.38;2071835;28;4015;-70
2021/04/14 03:02:03;;;;;;;;;;;;;;;20.87;48.71;102300.41;2071239;28;3809;-70
2021/04/14 03:03:05;;;;;;;;;;;;;;;20.87;48.70;102305.25;2077371;28;3727;-70
2021/04/14 03:04:06;;;;;;;;;;;;;;;20.87;48.75;102305.25;2077821;28;3787;-70
2021/04/14 03:05:07;;;;;;;;;;;;;;;20.87;48.67;102303.25;2077585;28;4071;-70
2021/04/14 03:06:07;;;;;;;;;;;;;;;20.87;48.81;102311.78;2077380;28;5104;-71
2021/04/14 03:07:08;;;;;;;;;;;;;;;20.87;48.87;102308.94;2077371;28;3879;-71
2021/04/14 03:08:09;;;;;;;;;;;;;;;20.87;48.86;102308.94;2076915;28;4016;-71
2021/04/14 03:09:10;;;;;;;;;;;;;;;20.87;48.84;102308.94;2077727;28;3792;-72
2021/04/14 03:10:10;;;;;;;;;;;;;;;20.88;48.93;102310.63;2077196;28;3924;-72
2021/04/14 03:11:11;;;;;;;;;;;;;;;20.88;49.02;102312.63;2077412;28;3912;-72
2021/04/14 03:12:12;;;;;;;;;;;;;;;20.88;48.96;102304.91;2077513;28;3722;-73
2021/04/14 03:13:15;;;;;;;;;;;;;;;20.89;49.01;102308.59;2077149;28;4141;-71
2021/04/14 03:14:16;;;;;;;;;;;;;;;20.88;49.06;102307.78;2077465;28;3856;-72
2021/04/14 03:15:17;;;;;;;;;;;;;;;20.88;48.99;102310.63;2074739;28;3946;-72
2021/04/14 03:16:17;;;;;;;;;;;;;;;20.89;48.98;102306.59;2077626;28;3980;-72
2021/04/14 03:17:18;;;;;;;;;;;;;;;20.88;49.10;102312.63;2077590;28;4205;-72
2021/04/14 03:18:19;;;;;;;;;;;;;;;20.88;49.00;102307.78;2077074;28;6085;-72
2021/04/14 03:19:20;;;;;;;;;;;;;;;20.88;48.92;102313.47;2077627;28;3699;-72
2021/04/14 03:20:20;;;;;;;;;;;;;;;20.88;49.17;102313.47;2076682;28;5133;-73
2021/04/14 03:21:21;;;;;;;;;;;;;;;20.88;49.01;102313.47;2077045;28;4258;-73
2021/04/14 03:22:22;;;;;;;;;;;;;;;20.88;49.14;102312.63;2077207;28;3870;-72
2021/04/14 03:23:22;;;;;;;;;;;;;;;20.89;49.00;102315.13;2077300;28;3881;-72
2021/04/14 03:24:23;;;;;;;;;;;;;;;20.88;49.13;102306.94;2077797;28;3920;-72
2021/04/14 03:25:24;;;;;;;;;;;;;;;20.88;49.13;102310.63;2077612;28;3936;-72
2021/04/14 03:26:25;;;;;;;;;;;;;;;20.88;49.13;102304.91;2077408;28;4039;-72
2021/04/14 03:27:26;;;;;;;;;;;;;;;20.87;49.13;102311.78;2077474;28;3860;-73
2021/04/14 03:28:26;;;;;;;;;;;;;;;20.87;49.30;102311.78;2077321;28;3779;-72
2021/04/14 03:29:27;;;;;;;;;;;;;;;20.88;49.21;102307.78;2077307;28;3884;-72
2021/04/14 03:30:28;;;;;;;;;;;;;;;20.88;49.19;102304.91;2077557;28;3911;-71
2021/04/14 03:31:29;;;;;;;;;;;;;;;20.88;49.16;102306.94;2077979;28;3808;-71
2021/04/14 03:32:29;;;;;;;;;;;;;;;20.88;49.32;102304.91;2076596;28;3967;-73
2021/04/14 03:33:30;;;;;;;;;;;;;;;20.89;49.51;102303.75;2078020;28;3877;-72
2021/04/14 03:34:31;;;;;;;;;;;;;;;20.88;49.25;102299.22;2078137;28;3864;-71
2021/04/14 03:35:31;;;;;;;;;;;;;;;20.89;49.38;102302.91;2077324;28;4348;-72
2021/04/14 03:36:32;;;;;;;;;;;;;;;20.88;49.29;102306.94;2077213;28;3892;-71
2021/04/14 03:37:33;;;;;;;;;;;;;;;20.87;49.35;102306.09;2076889;28;3892;-71
2021/04/14 03:38:34;;;;;;;;;;;;;;;20.87;49.17;102306.09;2076989;28;4059;-71
2021/04/14 03:39:34;;;;;;;;;;;;;;;20.87;49.37;102308.94;2076917;28;3844;-70
2021/04/14 03:40:35;;;;;;;;;;;;;;;20.87;49.25;102308.94;2071855;28;4100;-71
2021/04/14 03:41:36;;;;;;;;;;;;;;;20.87;49.48;102306.09;2068457;28;3955;-71
2021/04/14 03:42:37;;;;;;;;;;;;;;;20.87;49.34;102300.41;2067967;28;3768;-71
2021/04/14 03:43:37;;;;;;;;;;;;;;;20.88;49.09;102295.56;2077047;28;3833;-73
2021/04/14 03:44:38;;;;;;;;;;;;;;;20.86;49.32;102298.69;2077606;28;3927;-72
2021/04/14 03:45:42;;;;;;;;;;;;;;;20.86;49.35;102304.38;2076951;28;3836;-72
2021/04/14 03:46:42;;;;;;;;;;;;;;;20.87;49.36;102300.41;2077291;28;4084;-72
2021/04/14 03:47:44;;;;;;;;;;;;;;;20.87;49.36;102305.25;2076959;28;3884;-73
2021/04/14 03:48:45;;;;;;;;;;;;;;;20.86;49.26;102304.38;2071823;28;3886;-73
2021/04/14 03:49:46;;;;;;;;;;;;;;;20.87;49.13;102300.41;2071458;28;3851;-72
2021/04/14 03:50:47;;;;;;;;;;;;;;;20.87;49.32;102305.25;2077240;28;3871;-72
2021/04/14 03:51:47;;;;;;;;;;;;;;;20.87;49.32;102303.25;2077462;28;3952;-73
2021/04/14 03:52:49;;;;;;;;;;;;;;;20.87;49.32;102299.56;2077517;28;4000;-73
2021/04/14 03:53:49;;;;;;;;;;;;;;;20.87;49.23;102297.56;2077392;28;3893;-72
2021/04/14 03:54:50;;;;;;;;;;;;;;;20.87;49.20;102305.25;2077474;28;3874;-72
2021/04/14 03:55:51;;;;;;;;;;;;;;;20.87;49.38;102297.56;2076665;28;4064;-73
2021/04/14 03:56:52;;;;;;;;;;;;;;;20.86;49.39;102300.72;2076732;28;3777;-76
2021/04/14 03:57:52;;;;;;;;;;;;;;;20.87;49.17;102299.56;2077360;28;4033;-75
2021/04/14 03:58:53;;;;;;;;;;;;;;;20.86;49.38;102298.69;2077479;28;3854;-75
2021/04/14 03:59:54;;;;;;;;;;;;;;;20.87;49.17;102299.56;2076275;28;4079;-76
2021/04/14 04:00:55;;;;;;;;;;;;;;;20.87;49.37;102299.56;2076367;28;4362;-74
2021/04/14 04:01:55;;;;;;;;;;;;;;;20.87;49.28;102302.41;2077100;28;3860;-76
2021/04/14 04:02:56;;;;;;;;;;;;;;;20.87;49.31;102302.41;2077533;28;3879;-76
2021/04/14 04:03:57;;;;;;;;;;;;;;;20.87;49.41;102300.41;2077380;28;4097;-76
2021/04/14 04:04:58;;;;;;;;;;;;;;;20.86;49.33;102304.38;2078014;28;3890;-75
2021/04/14 04:05:58;;;;;;;;;;;;;;;20.86;49.36;102306.41;2076596;28;3871;-75
2021/04/14 04:06:59;;;;;;;;;;;;;;;20.87;49.38;102310.94;2076856;28;4464;-75
2021/04/14 04:08:00;;;;;;;;;;;;;;;20.86;49.35;102307.22;2076575;28;3859;-75
2021/04/14 04:09:01;;;;;;;;;;;;;;;20.86;49.52;102304.38;2077049;28;3871;-75
2021/04/14 04:10:01;;;;;;;;;;;;;;;20.87;49.56;102308.09;2076464;28;3952;-75
2021/04/14 04:11:02;;;;;;;;;;;;;;;20.87;49.51;102311.78;2076332;28;4157;-75
2021/04/14 04:12:06;;;;;;;;;;;;;;;20.86;49.39;102312.91;2077264;28;3926;-75
2021/04/14 04:13:07;;;;;;;;;;;;;;;20.86;49.44;102306.41;2076937;28;3863;-75
2021/04/14 04:14:08;;;;;;;;;;;;;;;20.89;50.50;102312.28;2076186;28;5306;-75
2021/04/14 04:15:12;;;;;;;;;;;;;;;20.89;50.09;102308.59;2077179;28;3972;-75
2021/04/14 04:16:13;;;;;;;;;;;;;;;20.88;50.08;102310.63;2077150;28;3836;-75
2021/04/14 04:17:13;;;;;;;;;;;;;;;20.88;49.97;102309.78;2075649;28;4013;-74
2021/04/14 04:18:14;;;;;;;;;;;;;;;20.88;50.07;102315.47;2077386;28;4186;-73
2021/04/14 04:19:15;;;;;;;;;;;;;;;20.88;50.04;102315.47;2076804;28;3868;-73
2021/04/14 04:20:16;;;;;;;;;;;;;;;20.86;49.94;102312.91;2076851;28;5148;-73
2021/04/14 04:21:17;;;;;;;;;;;;;;;20.87;49.99;102316.63;2077209;28;4022;-73
2021/04/14 04:22:20;;;;;;;;;;;;;;;20.86;49.96;102312.91;2076967;28;3848;-74
2021/04/14 04:23:21;;;;;;;;;;;;;;;20.87;49.94;102317.47;2076718;28;3895;-74
2021/04/14 04:24:22;;;;;;;;;;;;;;;20.87;49.99;102316.63;2076848;28;3952;-74
2021/04/14 04:25:23;;;;;;;;;;;;;;;20.87;49.94;102316.63;2077683;28;4219;-74
2021/04/14 04:26:24;;;;;;;;;;;;;;;20.86;49.96;102318.63;2076772;28;3749;-74
2021/04/14 04:27:25;;;;;;;;;;;;;;;20.86;49.91;102318.63;2077348;28;4421;-72
2021/04/14 04:28:26;;;;;;;;;;;;;;;20.86;49.92;102315.78;2076695;28;4016;-72
2021/04/14 04:29:27;;;;;;;;;;;;;;;20.87;49.83;102319.47;2076783;28;3993;-72
2021/04/14 04:30:28;;;;;;;;;;;;;;;20.86;49.86;102320.63;2076819;28;4096;-70
2021/04/14 04:31:30;;;;;;;;;;;;;;;20.86;50.02;102318.63;2076560;28;5072;-71
2021/04/14 04:32:30;;;;;;;;;;;;;;;20.87;50.11;102320.31;2077208;28;3860;-70
2021/04/14 04:33:31;;;;;;;;;;;;;;;20.86;50.08;102318.63;2076382;28;4024;-71
2021/04/14 04:34:32;;;;;;;;;;;;;;;20.87;50.12;102317.47;2076012;28;4086;-72
2021/04/14 04:35:33;;;;;;;;;;;;;;;20.86;49.97;102327.16;2076077;28;3892;-72
2021/04/14 04:36:33;;;;;;;;;;;;;;;20.86;50.08;102318.63;2076651;28;4020;-70
2021/04/14 04:37:34;;;;;;;;;;;;;;;20.86;50.04;102317.78;2076614;28;3907;-70
2021/04/14 04:38:35;;;;;;;;;;;;;;;20.87;50.07;102320.31;2077324;28;3842;-70
2021/04/14 04:39:36;;;;;;;;;;;;;;;20.86;50.02;102320.63;2077308;28;3844;-70
2021/04/14 04:40:37;;;;;;;;;;;;;;;20.87;50.15;102319.47;2076394;28;3816;-70
2021/04/14 04:41:40;;;;;;;;;;;;;;;20.87;50.15;102323.16;2075804;28;3884;-72
2021/04/14 04:42:41;;;;;;;;;;;;;;;20.86;50.16;102315.78;2077210;28;4077;-73
2021/04/14 04:43:43;;;;;;;;;;;;;;;20.86;49.97;102321.47;2076155;28;3860;-73
2021/04/14 04:44:44;;;;;;;;;;;;;;;20.88;50.18;102324.00;2077084;28;3868;-73
2021/04/14 04:45:44;;;;;;;;;;;;;;;20.86;50.19;102327.16;2076170;28;3834;-70
2021/04/14 04:46:45;;;;;;;;;;;;;;;20.86;50.18;102318.63;2075522;28;4074;-72
2021/04/14 04:47:46;;;;;;;;;;;;;;;20.86;50.29;102324.31;2076469;28;3889;-71
2021/04/14 04:48:47;;;;;;;;;;;;;;;20.87;50.06;102325.16;2076682;28;5235;-72
2021/04/14 04:49:48;;;;;;;;;;;;;;;20.87;50.08;102317.47;2077004;28;3772;-72
2021/04/14 04:50:48;;;;;;;;;;;;;;;20.86;50.18;102318.63;2076664;28;3903;-70
2021/04/14 04:51:49;;;;;;;;;;;;;;;20.86;50.15;102327.16;2077574;28;3764;-71
2021/04/14 04:52:50;;;;;;;;;;;;;;;20.86;50.31;102324.31;2078632;28;4086;-70
2021/04/14 04:53:50;;;;;;;;;;;;;;;20.86;50.26;102320.63;2078473;28;3767;-71
2021/04/14 04:54:51;;;;;;;;;;;;;;;20.86;50.35;102327.16;2078660;28;3951;-71
2021/04/14 04:55:52;;;;;;;;;;;;;;;20.86;50.17;102327.16;2078526;28;3869;-71
2021/04/14 04:56:53;;;;;;;;;;;;;;;20.86;50.25;102332.84;2078250;28;4024;-72
2021/04/14 04:57:53;;;;;;;;;;;;;;;20.85;50.20;102328.31;2077777;28;3910;-72
2021/04/14 04:58:54;;;;;;;;;;;;;;;20.87;50.32;102330.88;2078420;28;5176;-72
2021/04/14 04:59:55;;;;;;;;;;;;;;;20.87;50.37;102328.00;2076456;28;3845;-71
2021/04/14 05:00:56;;;;;;;;;;;;;;;20.86;50.23;102332.84;2078241;28;4048;-72
2021/04/14 05:01:58;;;;;;;;;;;;;;;20.86;50.27;102327.16;2078072;28;4221;-71
2021/04/14 05:02:59;;;;;;;;;;;;;;;20.87;50.18;102333.72;2078400;28;3929;-71
2021/04/14 05:04:00;;;;;;;;;;;;;;;20.86;50.34;102332.84;2078638;28;3863;-70
2021/04/14 05:05:01;;;;;;;;;;;;;;;20.86;50.27;102340.53;2078825;28;3850;-70
2021/04/14 05:06:02;;;;;;;;;;;;;;;20.86;50.38;102349.91;2078315;28;3904;-71
2021/04/14 05:07:02;;;;;;;;;;;;;;;20.86;50.34;102340.53;2079001;28;3775;-70
2021/04/14 05:08:03;;;;;;;;;;;;;;;20.85;50.34;102345.38;2077994;28;4253;-71
2021/04/14 05:09:04;;;;;;;;;;;;;;;20.86;50.34;102337.69;2078565;28;3856;-71
2021/04/14 05:10:05;;;;;;;;;;;;;;;20.86;50.29;102343.38;2076151;28;3857;-71
2021/04/14 05:11:05;;;;;;;;;;;;;;;20.86;50.33;102338.53;2078338;28;4002;-70
2021/04/14 05:12:06;;;;;;;;;;;;;;;20.87;50.46;102342.25;2078504;28;3721;-72
2021/04/14 05:13:07;;;;;;;;;;;;;;;20.86;50.21;102337.69;2077777;28;4088;-72
2021/04/14 05:14:08;;;;;;;;;;;;;;;20.86;50.32;102341.38;2078038;28;3828;-71
2021/04/14 05:15:09;;;;;;;;;;;;;;;20.85;50.18;102345.38;2078860;28;4062;-73
2021/04/14 05:16:09;;;;;;;;;;;;;;;20.85;50.35;102351.06;2078331;28;3947;-71
2021/04/14 05:17:10;;;;;;;;;;;;;;;20.86;50.36;102349.91;2077640;28;4004;-71